Puropanmaru No.3 — JD3322 — position and weather

sailwx.info

Track history (hours):
 
Tides and Currents Weather Stations Pressure Air Temp Water Temp Dewpoint Dewpoint Depression Visibility Wind Speed Wind Dir Waves Ship Positions

Puropanmaru No.3

Last reported at 2015-Sep-03 03:33 UTC. Time now 2015-Sep-03 04:32 UTC.
Position N 35°32' E 140°03'.

Length 68 m; draft 4.4 m.

Type: Tanker. MMSI: 431003365.

Date/timePositionNaut miles runAvg speedWind from/ knotsBaromVisibWave heightAir tempDewpointWater temp
2015-Sep-03 03:33N 35°32' E 140°03'0 0.1
2015-Sep-03 02:33N 35°32' E 140°03'0 0.0
2015-Sep-03 01:33N 35°32' E 140°03'0 0.0
2015-Sep-03 00:33N 35°32' E 140°03'1 0.8
2015-Sep-02 23:33N 35°32' E 140°03'3 2.7
2015-Sep-02 22:33N 35°34' E 140°05'0 0.1
2015-Sep-02 21:34N 35°34' E 140°05'0 0.0
2015-Sep-02 20:34N 35°34' E 140°05'0 0.0
2015-Sep-02 19:27N 35°34' E 140°05'0 0.1
2015-Sep-02 18:34N 35°34' E 140°05'0 0.0
2015-Sep-02 17:28N 35°34' E 140°05'0 0.0
2015-Sep-02 16:31N 35°34' E 140°05'0 0.0
2015-Sep-02 15:33N 35°34' E 140°05'0 0.0
2015-Sep-02 14:21N 35°34' E 140°05'0 0.0
2015-Sep-02 13:33N 35°34' E 140°05'0 0.0
2015-Sep-02 12:33N 35°34' E 140°05'0 0.0
2015-Sep-02 11:32N 35°34' E 140°05'0 0.0
2015-Sep-02 10:33N 35°34' E 140°05'0 0.0
2015-Sep-02 09:33N 35°34' E 140°05'0 0.0
2015-Sep-02 08:34N 35°34' E 140°05'0 0.0
2015-Sep-02 07:33N 35°34' E 140°05'0 0.0
2015-Sep-02 06:33N 35°34' E 140°05'0 0.0
2015-Sep-02 05:33N 35°34' E 140°05'0 0.0
2015-Sep-02 02:33N 35°34' E 140°05'0 0.0
2015-Sep-02 01:33N 35°34' E 140°05'0 0.0
2015-Sep-02 00:33N 35°34' E 140°05'0 0.0
2015-Sep-01 23:21N 35°34' E 140°05'0 0.0
2015-Sep-01 22:33N 35°34' E 140°05'0 0.0
2015-Sep-01 21:33N 35°34' E 140°05'0 0.1
2015-Sep-01 20:27N 35°33' E 140°05'3 3.3
2015-Sep-01 19:33N 35°33' E 140°02'1413.7
2015-Sep-01 18:33N 35°26' E 139°48'1212.0
2015-Sep-01 17:33N 35°14' E 139°47'1313.3
2015-Sep-01 16:33N 35°01' E 139°44'1311.2
2015-Sep-01 15:23N 34°52' E 139°57'1213.6
2015-Sep-01 14:30N 34°59' E 140°09'3710.9
2015-Sep-01 11:04N 35°25' E 140°42'3311.0
2015-Sep-01 08:05N 35°58' E 140°43'4 8.5
2015-Sep-01 07:33N 35°54' E 140°41'0 0.0
2015-Sep-01 06:13N 35°54' E 140°41'0 0.0
2015-Sep-01 04:10N 35°54' E 140°41'5 6.0
2015-Sep-01 03:20N 35°58' E 140°43'0 0.2
2015-Sep-01 01:16N 35°58' E 140°44'0 0.0
2015-Sep-01 00:33N 35°58' E 140°44'0 0.1
2015-Aug-31 23:33N 35°58' E 140°44'0 0.0
2015-Aug-31 22:33N 35°58' E 140°44'0 0.0
2015-Aug-31 21:33N 35°58' E 140°44'0 0.0
2015-Aug-31 20:32N 35°58' E 140°44'1010.1
2015-Aug-31 19:33N 35°50' E 140°51'1111.0
2015-Aug-31 18:31N 35°39' E 140°53'1212.7
2015-Aug-31 17:32N 35°29' E 140°45'1312.8
2015-Aug-31 16:29N 35°18' E 140°35'1413.1
2015-Aug-31 15:26N 35°07' E 140°25'1213.1
2015-Aug-31 14:32N 35°00' E 140°13'2311.6
2015-Aug-31 12:33N 34°53' E 139°46'1211.7
2015-Aug-31 11:32N 35°05' E 139°45'1212.5
2015-Aug-31 10:33N 35°17' E 139°45'1110.7
2015-Aug-31 09:34N 35°28' E 139°48'1312.5
2015-Aug-31 08:34N 35°32' E 140°02'1 0.9
2015-Aug-31 07:33N 35°32' E 140°03'0 0.0
2015-Aug-31 06:33N 35°32' E 140°03'0 0.0
2015-Aug-31 05:33N 35°32' E 140°03'1 1.4
2015-Aug-31 04:33N 35°32' E 140°02'8 7.7
2015-Aug-31 03:34N 35°28' E 139°54'0 0.0
2015-Aug-31 02:28N 35°28' E 139°54'0 0.0
2015-Aug-31 01:31N 35°28' E 139°54'0 0.0
2015-Aug-31 00:28N 35°28' E 139°54'0 0.0
2015-Aug-30 23:31N 35°28' E 139°54'0 0.0
2015-Aug-30 22:31N 35°28' E 139°54'0 0.0
2015-Aug-30 21:31N 35°28' E 139°54'0 0.0
2015-Aug-30 20:31N 35°28' E 139°54'0 0.0
2015-Aug-30 19:28N 35°28' E 139°54'0 0.0
2015-Aug-30 18:31N 35°28' E 139°54'0 0.0
2015-Aug-30 17:28N 35°28' E 139°54'0 0.0
2015-Aug-30 16:31N 35°28' E 139°54'0 0.0
2015-Aug-30 15:28N 35°28' E 139°54'0 0.0
2015-Aug-30 14:16N 35°28' E 139°54'0 0.0
2015-Aug-30 13:31N 35°28' E 139°54'5 4.8
2015-Aug-30 12:33N 35°26' E 139°49'1110.6
2015-Aug-30 11:33N 35°16' E 139°47'1312.3
2015-Aug-30 10:30N 35°03' E 139°41'23910.9
2015-Aug-29 12:30N 34°07' E 134°59'  
2015-Aug-26 18:33N 34°37' E 135°01'10 9.9
2015-Aug-26 17:33N 34°28' E 135°03'1311.9
2015-Aug-26 16:26N 34°15' E 134°59'226 4.3
2015-Aug-24 12:31N 35°01' E 139°28'1414.4
2015-Aug-24 11:34N 35°08' E 139°42'1211.8
2015-Aug-24 10:33N 35°19' E 139°43'1212.0
2015-Aug-24 09:33N 35°29' E 139°51'1010.4
2015-Aug-24 08:33N 35°32' E 140°03'0 0.0
2015-Aug-24 07:33N 35°32' E 140°03'0 0.0
2015-Aug-24 06:33N 35°32' E 140°03'0 0.0
2015-Aug-24 05:33N 35°32' E 140°03'2 1.7
2015-Aug-24 04:33N 35°32' E 140°01'  
Track history (hours):
 
Tides and Currents Weather Stations Pressure Air Temp Water Temp Dewpoint Dewpoint Depression Visibility Wind Speed Wind Dir Waves Ship Positions

Puropanmaru No.3

Last reported at 2015-Sep-03 03:33 UTC. Time now 2015-Sep-03 04:32 UTC.
Position N 35°32' E 140°03'.

Length 68 m; draft 4.4 m.

Type: Tanker. MMSI: 431003365.

Date/timePositionNaut miles runAvg speedWind from/ knotsBaromVisibWave heightAir tempDewpointWater temp
2015-Sep-03 03:33N 35°32' E 140°03'0 0.1
2015-Sep-03 02:33N 35°32' E 140°03'0 0.0
2015-Sep-03 01:33N 35°32' E 140°03'0 0.0
2015-Sep-03 00:33N 35°32' E 140°03'1 0.8
2015-Sep-02 23:33N 35°32' E 140°03'3 2.7
2015-Sep-02 22:33N 35°34' E 140°05'0 0.1
2015-Sep-02 21:34N 35°34' E 140°05'0 0.0
2015-Sep-02 20:34N 35°34' E 140°05'0 0.0
2015-Sep-02 19:27N 35°34' E 140°05'0 0.1
2015-Sep-02 18:34N 35°34' E 140°05'0 0.0
2015-Sep-02 17:28N 35°34' E 140°05'0 0.0
2015-Sep-02 16:31N 35°34' E 140°05'0 0.0
2015-Sep-02 15:33N 35°34' E 140°05'0 0.0
2015-Sep-02 14:21N 35°34' E 140°05'0 0.0
2015-Sep-02 13:33N 35°34' E 140°05'0 0.0
2015-Sep-02 12:33N 35°34' E 140°05'0 0.0
2015-Sep-02 11:32N 35°34' E 140°05'0 0.0
2015-Sep-02 10:33N 35°34' E 140°05'0 0.0
2015-Sep-02 09:33N 35°34' E 140°05'0 0.0
2015-Sep-02 08:34N 35°34' E 140°05'0 0.0
2015-Sep-02 07:33N 35°34' E 140°05'0 0.0
2015-Sep-02 06:33N 35°34' E 140°05'0 0.0
2015-Sep-02 05:33N 35°34' E 140°05'0 0.0
2015-Sep-02 02:33N 35°34' E 140°05'0 0.0
2015-Sep-02 01:33N 35°34' E 140°05'0 0.0
2015-Sep-02 00:33N 35°34' E 140°05'0 0.0
2015-Sep-01 23:21N 35°34' E 140°05'0 0.0
2015-Sep-01 22:33N 35°34' E 140°05'0 0.0
2015-Sep-01 21:33N 35°34' E 140°05'0 0.1
2015-Sep-01 20:27N 35°33' E 140°05'3 3.3
2015-Sep-01 19:33N 35°33' E 140°02'1413.7
2015-Sep-01 18:33N 35°26' E 139°48'1212.0
2015-Sep-01 17:33N 35°14' E 139°47'1313.3
2015-Sep-01 16:33N 35°01' E 139°44'1311.2
2015-Sep-01 15:23N 34°52' E 139°57'1213.6
2015-Sep-01 14:30N 34°59' E 140°09'3710.9
2015-Sep-01 11:04N 35°25' E 140°42'3311.0
2015-Sep-01 08:05N 35°58' E 140°43'4 8.5
2015-Sep-01 07:33N 35°54' E 140°41'0 0.0
2015-Sep-01 06:13N 35°54' E 140°41'0 0.0
2015-Sep-01 04:10N 35°54' E 140°41'5 6.0
2015-Sep-01 03:20N 35°58' E 140°43'0 0.2
2015-Sep-01 01:16N 35°58' E 140°44'0 0.0
2015-Sep-01 00:33N 35°58' E 140°44'0 0.1
2015-Aug-31 23:33N 35°58' E 140°44'0 0.0
2015-Aug-31 22:33N 35°58' E 140°44'0 0.0
2015-Aug-31 21:33N 35°58' E 140°44'0 0.0
2015-Aug-31 20:32N 35°58' E 140°44'1010.1
2015-Aug-31 19:33N 35°50' E 140°51'1111.0
2015-Aug-31 18:31N 35°39' E 140°53'1212.7
2015-Aug-31 17:32N 35°29' E 140°45'1312.8
2015-Aug-31 16:29N 35°18' E 140°35'1413.1
2015-Aug-31 15:26N 35°07' E 140°25'1213.1
2015-Aug-31 14:32N 35°00' E 140°13'2311.6
2015-Aug-31 12:33N 34°53' E 139°46'1211.7
2015-Aug-31 11:32N 35°05' E 139°45'1212.5
2015-Aug-31 10:33N 35°17' E 139°45'1110.7
2015-Aug-31 09:34N 35°28' E 139°48'1312.5
2015-Aug-31 08:34N 35°32' E 140°02'1 0.9
2015-Aug-31 07:33N 35°32' E 140°03'0 0.0
2015-Aug-31 06:33N 35°32' E 140°03'0 0.0
2015-Aug-31 05:33N 35°32' E 140°03'1 1.4
2015-Aug-31 04:33N 35°32' E 140°02'8 7.7
2015-Aug-31 03:34N 35°28' E 139°54'0 0.0
2015-Aug-31 02:28N 35°28' E 139°54'0 0.0
2015-Aug-31 01:31N 35°28' E 139°54'0 0.0
2015-Aug-31 00:28N 35°28' E 139°54'0 0.0
2015-Aug-30 23:31N 35°28' E 139°54'0 0.0
2015-Aug-30 22:31N 35°28' E 139°54'0 0.0
2015-Aug-30 21:31N 35°28' E 139°54'0 0.0
2015-Aug-30 20:31N 35°28' E 139°54'0 0.0
2015-Aug-30 19:28N 35°28' E 139°54'0 0.0
2015-Aug-30 18:31N 35°28' E 139°54'0 0.0
2015-Aug-30 17:28N 35°28' E 139°54'0 0.0
2015-Aug-30 16:31N 35°28' E 139°54'0 0.0
2015-Aug-30 15:28N 35°28' E 139°54'0 0.0
2015-Aug-30 14:16N 35°28' E 139°54'0 0.0
2015-Aug-30 13:31N 35°28' E 139°54'5 4.8
2015-Aug-30 12:33N 35°26' E 139°49'1110.6
2015-Aug-30 11:33N 35°16' E 139°47'1312.3
2015-Aug-30 10:30N 35°03' E 139°41'23910.9
2015-Aug-29 12:30N 34°07' E 134°59'  
2015-Aug-26 18:33N 34°37' E 135°01'10 9.9
2015-Aug-26 17:33N 34°28' E 135°03'1311.9
2015-Aug-26 16:26N 34°15' E 134°59'226 4.3
2015-Aug-24 12:31N 35°01' E 139°28'1414.4
2015-Aug-24 11:34N 35°08' E 139°42'1211.8
2015-Aug-24 10:33N 35°19' E 139°43'1212.0
2015-Aug-24 09:33N 35°29' E 139°51'1010.4
2015-Aug-24 08:33N 35°32' E 140°03'0 0.0
2015-Aug-24 07:33N 35°32' E 140°03'0 0.0
2015-Aug-24 06:33N 35°32' E 140°03'0 0.0
2015-Aug-24 05:33N 35°32' E 140°03'2 1.7
2015-Aug-24 04:33N 35°32' E 140°01'  

Dump ship's entire track history